Berta — V2BQ6 — position and weather

sailwx.info

Track history (hours):
 
Tides and Currents Weather Stations Pressure Air Temp Water Temp Dewpoint Dewpoint Depression Visibility Wind Speed Wind Dir Waves Ship Positions

Berta

Last reported at 2015-May-03 15:22 UTC. Time now 2015-May-03 23:57 UTC.
Position N 58°18' E 005°16'.

Length 119 m; draft 6 m.

Type: Cargo ship. MMSI: 304586000.

Date/timePositionNaut miles runAvg speedWind from/ knotsBaromVisibWave heightAir tempDewpointWater temp
2015-May-03 15:22N 58°18' E 005°16'305 8.0
2015-May-02 01:04N 63°13' E 007°50'283 6.9
2015-Apr-30 08:16N 58°45' E 004°41'3114.0
2015-Apr-30 06:03N 58°22' E 005°21'714.1
2015-Apr-30 05:33N 58°16' E 005°28'1514.2
2015-Apr-30 04:32N 58°02' E 005°33'14614.0
2015-Apr-29 18:05N 55°41' E 006°43'713.7
2015-Apr-29 17:33N 55°34' E 006°47'1414.0
2015-Apr-29 16:33N 55°21' E 006°55'1414.0
2015-Apr-29 15:33N 55°07' E 007°01'1414.1
2015-Apr-29 14:34N 54°54' E 007°09'1414.4
2015-Apr-29 13:33N 54°40' E 007°18'1514.6
2015-Apr-29 12:34N 54°27' E 007°27'1514.5
2015-Apr-29 11:33N 54°14' E 007°37'1514.6
2015-Apr-29 10:33N 54°05' E 007°57'1413.7
2015-Apr-29 09:34N 54°00' E 008°18'1313.3
2015-Apr-29 08:34N 53°56' E 008°40'1110.5
2015-Apr-29 07:33N 53°51' E 008°56'1010.3
2015-Apr-29 06:33N 53°53' E 009°13'1312.9
2015-Apr-29 05:33N 53°43' E 009°28'1514.7
2015-Apr-29 04:33N 53°34' E 009°46'5 2.5
2015-Apr-29 02:25N 53°32' E 009°55'0 0.0
2015-Apr-29 01:33N 53°32' E 009°55'2 1.6
2015-Apr-29 00:33N 53°31' E 009°56'0 0.4
2015-Apr-28 23:28N 53°31' E 009°56'0 0.0
2015-Apr-28 22:33N 53°31' E 009°56'0 0.0
2015-Apr-28 21:33N 53°31' E 009°56'0 0.0
2015-Apr-28 20:33N 53°31' E 009°56'0 0.0
2015-Apr-28 19:33N 53°31' E 009°56'0 0.0
2015-Apr-28 18:33N 53°31' E 009°56'6 6.3
2015-Apr-28 17:33N 53°33' E 009°47'1211.8
2015-Apr-28 16:33N 53°40' E 009°31'1212.0
2015-Apr-28 15:33N 53°50' E 009°20'1110.8
2015-Apr-28 14:33N 53°52' E 009°02'1110.6
2015-Apr-28 13:34N 53°52' E 008°44'9 9.1
2015-Apr-28 12:33N 53°58' E 008°32'1211.5
2015-Apr-28 11:34N 53°60' E 008°13'7 7.3
2015-Apr-28 10:33N 53°58' E 008°01'6 5.9
2015-Apr-28 09:33N 53°57' E 007°51'9 9.3
2015-Apr-28 08:34N 53°51' E 008°03'1413.7
2015-Apr-28 07:33N 53°41' E 008°21'9 9.0
2015-Apr-28 06:33N 53°35' E 008°32'0 0.0
2015-Apr-28 05:33N 53°35' E 008°32'0 0.0
2015-Apr-28 04:33N 53°35' E 008°32'0 0.0
2015-Apr-28 03:33N 53°35' E 008°32'0 0.0
2015-Apr-28 02:33N 53°35' E 008°32'0 0.0
2015-Apr-28 01:33N 53°35' E 008°32'0 0.0
2015-Apr-28 00:33N 53°35' E 008°32'0 0.0
2015-Apr-27 23:34N 53°35' E 008°32'0 0.0
2015-Apr-27 22:33N 53°35' E 008°32'0 0.4
2015-Apr-27 21:33N 53°35' E 008°31'1010.3
2015-Apr-27 20:33N 53°42' E 008°19'1211.7
2015-Apr-27 19:33N 53°50' E 008°04'1212.3
2015-Apr-27 18:33N 53°53' E 007°43'1313.3
2015-Apr-27 17:33N 54°05' E 007°32'1212.3
2015-Apr-27 16:33N 54°16' E 007°23'1212.1
2015-Apr-27 15:33N 54°28' E 007°18'1212.4
2015-Apr-27 14:33N 54°40' E 007°13'1312.9
2015-Apr-27 13:33N 54°52' E 007°08'1312.7
2015-Apr-27 12:33N 55°05' E 007°02'1312.4
2015-Apr-27 11:33N 55°16' E 006°55'1212.1
2015-Apr-27 10:32N 55°28' E 006°47'1212.4
2015-Apr-27 09:32N 55°40' E 006°41'11812.8
2015-Apr-27 00:19N 57°31' E 005°31'  
Track history (hours):
 
Tides and Currents Weather Stations Pressure Air Temp Water Temp Dewpoint Dewpoint Depression Visibility Wind Speed Wind Dir Waves Ship Positions

Berta

Last reported at 2015-May-03 15:22 UTC. Time now 2015-May-03 23:57 UTC.
Position N 58°18' E 005°16'.

Length 119 m; draft 6 m.

Type: Cargo ship. MMSI: 304586000.

Date/timePositionNaut miles runAvg speedWind from/ knotsBaromVisibWave heightAir tempDewpointWater temp
2015-May-03 15:22N 58°18' E 005°16'305 8.0
2015-May-02 01:04N 63°13' E 007°50'283 6.9
2015-Apr-30 08:16N 58°45' E 004°41'3114.0
2015-Apr-30 06:03N 58°22' E 005°21'714.1
2015-Apr-30 05:33N 58°16' E 005°28'1514.2
2015-Apr-30 04:32N 58°02' E 005°33'14614.0
2015-Apr-29 18:05N 55°41' E 006°43'713.7
2015-Apr-29 17:33N 55°34' E 006°47'1414.0
2015-Apr-29 16:33N 55°21' E 006°55'1414.0
2015-Apr-29 15:33N 55°07' E 007°01'1414.1
2015-Apr-29 14:34N 54°54' E 007°09'1414.4
2015-Apr-29 13:33N 54°40' E 007°18'1514.6
2015-Apr-29 12:34N 54°27' E 007°27'1514.5
2015-Apr-29 11:33N 54°14' E 007°37'1514.6
2015-Apr-29 10:33N 54°05' E 007°57'1413.7
2015-Apr-29 09:34N 54°00' E 008°18'1313.3
2015-Apr-29 08:34N 53°56' E 008°40'1110.5
2015-Apr-29 07:33N 53°51' E 008°56'1010.3
2015-Apr-29 06:33N 53°53' E 009°13'1312.9
2015-Apr-29 05:33N 53°43' E 009°28'1514.7
2015-Apr-29 04:33N 53°34' E 009°46'5 2.5
2015-Apr-29 02:25N 53°32' E 009°55'0 0.0
2015-Apr-29 01:33N 53°32' E 009°55'2 1.6
2015-Apr-29 00:33N 53°31' E 009°56'0 0.4
2015-Apr-28 23:28N 53°31' E 009°56'0 0.0
2015-Apr-28 22:33N 53°31' E 009°56'0 0.0
2015-Apr-28 21:33N 53°31' E 009°56'0 0.0
2015-Apr-28 20:33N 53°31' E 009°56'0 0.0
2015-Apr-28 19:33N 53°31' E 009°56'0 0.0
2015-Apr-28 18:33N 53°31' E 009°56'6 6.3
2015-Apr-28 17:33N 53°33' E 009°47'1211.8
2015-Apr-28 16:33N 53°40' E 009°31'1212.0
2015-Apr-28 15:33N 53°50' E 009°20'1110.8
2015-Apr-28 14:33N 53°52' E 009°02'1110.6
2015-Apr-28 13:34N 53°52' E 008°44'9 9.1
2015-Apr-28 12:33N 53°58' E 008°32'1211.5
2015-Apr-28 11:34N 53°60' E 008°13'7 7.3
2015-Apr-28 10:33N 53°58' E 008°01'6 5.9
2015-Apr-28 09:33N 53°57' E 007°51'9 9.3
2015-Apr-28 08:34N 53°51' E 008°03'1413.7
2015-Apr-28 07:33N 53°41' E 008°21'9 9.0
2015-Apr-28 06:33N 53°35' E 008°32'0 0.0
2015-Apr-28 05:33N 53°35' E 008°32'0 0.0
2015-Apr-28 04:33N 53°35' E 008°32'0 0.0
2015-Apr-28 03:33N 53°35' E 008°32'0 0.0
2015-Apr-28 02:33N 53°35' E 008°32'0 0.0
2015-Apr-28 01:33N 53°35' E 008°32'0 0.0
2015-Apr-28 00:33N 53°35' E 008°32'0 0.0
2015-Apr-27 23:34N 53°35' E 008°32'0 0.0
2015-Apr-27 22:33N 53°35' E 008°32'0 0.4
2015-Apr-27 21:33N 53°35' E 008°31'1010.3
2015-Apr-27 20:33N 53°42' E 008°19'1211.7
2015-Apr-27 19:33N 53°50' E 008°04'1212.3
2015-Apr-27 18:33N 53°53' E 007°43'1313.3
2015-Apr-27 17:33N 54°05' E 007°32'1212.3
2015-Apr-27 16:33N 54°16' E 007°23'1212.1
2015-Apr-27 15:33N 54°28' E 007°18'1212.4
2015-Apr-27 14:33N 54°40' E 007°13'1312.9
2015-Apr-27 13:33N 54°52' E 007°08'1312.7
2015-Apr-27 12:33N 55°05' E 007°02'1312.4
2015-Apr-27 11:33N 55°16' E 006°55'1212.1
2015-Apr-27 10:32N 55°28' E 006°47'1212.4
2015-Apr-27 09:32N 55°40' E 006°41'11812.8
2015-Apr-27 00:19N 57°31' E 005°31'  

Dump ship's entire track history